sensor_id;sensor_type;location;lat;lon;timestamp;pressure;altitude;pressure_sealevel;temperature;humidity
28354;BME280;15603;50.878;8.036;2022-11-20T00:01:16;143361.13;;;0.39;97.36
28354;BME280;15603;50.878;8.036;2022-11-20T00:03:44;143345.47;;;0.33;97.04
28354;BME280;15603;50.878;8.036;2022-11-20T00:06:16;143256.22;;;-0.05;98.81
28354;BME280;15603;50.878;8.036;2022-11-20T00:08:44;143357.50;;;0.38;98.41
28354;BME280;15603;50.878;8.036;2022-11-20T00:11:17;143347.84;;;0.34;97.90
28354;BME280;15603;50.878;8.036;2022-11-20T00:13:44;143349.06;;;0.34;98.63
28354;BME280;15603;50.878;8.036;2022-11-20T00:16:13;143318.94;;;0.22;98.46
28354;BME280;15603;50.878;8.036;2022-11-20T00:18:40;143321.31;;;0.23;98.22
28354;BME280;15603;50.878;8.036;2022-11-20T00:21:28;143335.78;;;0.29;97.45
28354;BME280;15603;50.878;8.036;2022-11-20T00:23:56;143350.28;;;0.35;97.79
28354;BME280;15603;50.878;8.036;2022-11-20T00:26:24;143350.28;;;0.35;99.14
28354;BME280;15603;50.878;8.036;2022-11-20T00:28:54;143335.78;;;0.29;97.47
28354;BME280;15603;50.878;8.036;2022-11-20T00:31:22;143345.47;;;0.33;99.95
28354;BME280;15603;50.878;8.036;2022-11-20T00:33:49;143338.22;;;0.30;95.82
28354;BME280;15603;50.878;8.036;2022-11-20T00:36:18;143326.13;;;0.25;98.02
28354;BME280;15603;50.878;8.036;2022-11-20T00:38:45;143352.69;;;0.36;97.80
28354;BME280;15603;50.878;8.036;2022-11-20T00:41:14;143370.78;;;0.44;98.62
28354;BME280;15603;50.878;8.036;2022-11-20T00:43:42;143381.66;;;0.48;98.47
28354;BME280;15603;50.878;8.036;2022-11-20T00:46:15;143384.03;;;0.49;97.96
28354;BME280;15603;50.878;8.036;2022-11-20T00:48:43;143381.66;;;0.48;98.01
28354;BME280;15603;50.878;8.036;2022-11-20T00:51:12;143396.13;;;0.54;97.79
28354;BME280;15603;50.878;8.036;2022-11-20T00:53:40;143400.94;;;0.56;96.83
28354;BME280;15603;50.878;8.036;2022-11-20T00:56:10;143390.06;;;0.52;95.89
28354;BME280;15603;50.878;8.036;2022-11-20T00:58:38;143415.41;;;0.63;97.64
28354;BME280;15603;50.878;8.036;2022-11-20T01:01:08;143412.97;;;0.62;95.64
28354;BME280;15603;50.878;8.036;2022-11-20T01:03:38;143326.13;;;0.25;96.79
28354;BME280;15603;50.878;8.036;2022-11-20T01:06:11;143406.97;;;0.59;97.81
28354;BME280;15603;50.878;8.036;2022-11-20T01:08:38;143428.69;;;0.68;98.55
28354;BME280;15603;50.878;8.036;2022-11-20T01:11:08;143408.16;;;0.59;98.58
28354;BME280;15603;50.878;8.036;2022-11-20T01:13:36;143408.16;;;0.59;97.99
28354;BME280;15603;50.878;8.036;2022-11-20T01:16:16;143404.56;;;0.58;99.41
28354;BME280;15603;50.878;8.036;2022-11-20T01:18:47;143403.34;;;0.57;98.96
28354;BME280;15603;50.878;8.036;2022-11-20T01:21:18;143412.97;;;0.62;97.95
28354;BME280;15603;50.878;8.036;2022-11-20T01:23:46;143386.47;;;0.50;99.84
28354;BME280;15603;50.878;8.036;2022-11-20T01:26:26;143388.88;;;0.51;98.87
28354;BME280;15603;50.878;8.036;2022-11-20T01:28:54;143380.41;;;0.48;100.00
28354;BME280;15603;50.878;8.036;2022-11-20T01:33:55;143410.59;;;0.61;100.00
28354;BME280;15603;50.878;8.036;2022-11-20T01:36:24;143287.56;;;0.08;100.00
28354;BME280;15603;50.878;8.036;2022-11-20T01:38:56;143410.59;;;0.61;100.00
28354;BME280;15603;50.878;8.036;2022-11-20T01:41:24;143404.56;;;0.58;99.58
28354;BME280;15603;50.878;8.036;2022-11-20T01:44:12;143396.13;;;0.54;100.00
28354;BME280;15603;50.878;8.036;2022-11-20T01:46:57;143399.75;;;0.56;100.00
28354;BME280;15603;50.878;8.036;2022-11-20T01:49:37;143381.66;;;0.48;100.00
28354;BME280;15603;50.878;8.036;2022-11-20T01:52:36;143400.94;;;0.56;100.00
28354;BME280;15603;50.878;8.036;2022-11-20T01:55:13;143410.59;;;0.61;99.94
28354;BME280;15603;50.878;8.036;2022-11-20T01:57:43;143429.88;;;0.69;100.00
28354;BME280;15603;50.878;8.036;2022-11-20T02:00:13;143432.31;;;0.70;100.00
28354;BME280;15603;50.878;8.036;2022-11-20T02:02:48;143433.50;;;0.70;100.00
28354;BME280;15603;50.878;8.036;2022-11-20T02:05:25;143451.63;;;0.78;99.77
28354;BME280;15603;50.878;8.036;2022-11-20T02:07:56;143449.19;;;0.77;99.78
28354;BME280;15603;50.878;8.036;2022-11-20T02:10:24;143454.03;;;0.79;100.00
28354;BME280;15603;50.878;8.036;2022-11-20T02:12:52;143371.97;;;0.44;100.00
28354;BME280;15603;50.878;8.036;2022-11-20T02:15:38;143451.63;;;0.78;100.00
28354;BME280;15603;50.878;8.036;2022-11-20T02:18:05;143464.88;;;0.84;100.00
28354;BME280;15603;50.878;8.036;2022-11-20T02:20:32;143454.03;;;0.79;100.00
28354;BME280;15603;50.878;8.036;2022-11-20T02:23:17;143472.16;;;0.87;100.00
28354;BME280;15603;50.878;8.036;2022-11-20T02:25:46;143458.88;;;0.81;100.00
28354;BME280;15603;50.878;8.036;2022-11-20T02:28:15;143350.28;;;0.35;100.00
28354;BME280;15603;50.878;8.036;2022-11-20T02:30:43;143425.06;;;0.67;100.00
28354;BME280;15603;50.878;8.036;2022-11-20T02:33:10;143444.34;;;0.75;100.00
28354;BME280;15603;50.878;8.036;2022-11-20T02:35:43;143432.31;;;0.70;100.00
28354;BME280;15603;50.878;8.036;2022-11-20T02:38:10;143439.53;;;0.73;100.00
28354;BME280;15603;50.878;8.036;2022-11-20T02:40:37;143451.63;;;0.78;100.00
28354;BME280;15603;50.878;8.036;2022-11-20T02:43:04;143444.34;;;0.75;100.00
28354;BME280;15603;50.878;8.036;2022-11-20T02:45:31;143455.25;;;0.80;100.00
28354;BME280;15603;50.878;8.036;2022-11-20T02:47:58;143451.63;;;0.78;100.00
28354;BME280;15603;50.878;8.036;2022-11-20T02:50:25;143462.44;;;0.83;100.00
28354;BME280;15603;50.878;8.036;2022-11-20T02:52:52;143468.50;;;0.85;100.00
28354;BME280;15603;50.878;8.036;2022-11-20T02:55:19;143454.03;;;0.79;100.00
28354;BME280;15603;50.878;8.036;2022-11-20T02:57:46;143475.72;;;0.88;100.00
28354;BME280;15603;50.878;8.036;2022-11-20T03:00:14;143441.97;;;0.74;100.00
28354;BME280;15603;50.878;8.036;2022-11-20T03:02:41;143446.78;;;0.76;100.00
28354;BME280;15603;50.878;8.036;2022-11-20T03:05:08;143484.19;;;0.92;100.00
28354;BME280;15603;50.878;8.036;2022-11-20T03:07:35;143497.47;;;0.97;100.00
28354;BME280;15603;50.878;8.036;2022-11-20T03:10:03;143492.63;;;0.95;100.00
28354;BME280;15603;50.878;8.036;2022-11-20T03:12:30;143499.91;;;0.98;100.00
28354;BME280;15603;50.878;8.036;2022-11-20T03:14:57;143499.91;;;0.98;100.00
28354;BME280;15603;50.878;8.036;2022-11-20T03:17:24;143502.28;;;1.00;100.00
28354;BME280;15603;50.878;8.036;2022-11-20T03:19:51;143390.06;;;0.52;100.00
28354;BME280;15603;50.878;8.036;2022-11-20T03:22:18;143495.06;;;0.96;100.00
28354;BME280;15603;50.878;8.036;2022-11-20T03:24:45;143490.25;;;0.94;100.00
28354;BME280;15603;50.878;8.036;2022-11-20T03:27:13;143485.38;;;0.92;100.00
28354;BME280;15603;50.878;8.036;2022-11-20T03:29:40;143504.72;;;1.01;100.00
28354;BME280;15603;50.878;8.036;2022-11-20T03:32:07;143510.72;;;1.03;100.00
28354;BME280;15603;50.878;8.036;2022-11-20T03:34:34;143519.19;;;1.07;100.00
28354;BME280;15603;50.878;8.036;2022-11-20T03:37:01;143516.75;;;1.06;100.00
28354;BME280;15603;50.878;8.036;2022-11-20T03:39:28;143520.38;;;1.07;100.00
28354;BME280;15603;50.878;8.036;2022-11-20T03:41:55;143516.75;;;1.06;100.00
28354;BME280;15603;50.878;8.036;2022-11-20T03:44:22;143444.34;;;0.75;100.00
28354;BME280;15603;50.878;8.036;2022-11-20T03:46:49;143490.25;;;0.94;100.00
28354;BME280;15603;50.878;8.036;2022-11-20T03:49:16;143497.47;;;0.97;100.00
28354;BME280;15603;50.878;8.036;2022-11-20T03:51:43;143486.63;;;0.93;100.00
28354;BME280;15603;50.878;8.036;2022-11-20T03:54:10;143505.91;;;1.01;100.00
28354;BME280;15603;50.878;8.036;2022-11-20T03:56:38;143412.97;;;0.62;100.00
28354;BME280;15603;50.878;8.036;2022-11-20T03:59:06;143497.47;;;0.97;100.00
28354;BME280;15603;50.878;8.036;2022-11-20T04:01:35;143426.25;;;0.67;100.00
28354;BME280;15603;50.878;8.036;2022-11-20T04:04:04;143511.94;;;1.04;100.00
28354;BME280;15603;50.878;8.036;2022-11-20T04:06:37;143499.91;;;0.98;100.00
28354;BME280;15603;50.878;8.036;2022-11-20T04:09:05;143504.72;;;1.01;100.00
28354;BME280;15603;50.878;8.036;2022-11-20T04:11:35;143495.06;;;0.96;100.00
28354;BME280;15603;50.878;8.036;2022-11-20T04:14:05;143511.94;;;1.04;100.00
28354;BME280;15603;50.878;8.036;2022-11-20T04:16:35;143504.72;;;1.01;100.00
28354;BME280;15603;50.878;8.036;2022-11-20T04:19:04;143476.97;;;0.89;100.00
28354;BME280;15603;50.878;8.036;2022-11-20T04:21:31;143487.81;;;0.93;100.00
28354;BME280;15603;50.878;8.036;2022-11-20T04:23:59;143518.00;;;1.06;100.00
28354;BME280;15603;50.878;8.036;2022-11-20T04:26:27;143509.53;;;1.03;100.00
28354;BME280;15603;50.878;8.036;2022-11-20T04:28:54;143468.50;;;0.85;100.00
28354;BME280;15603;50.878;8.036;2022-11-20T04:31:24;143526.44;;;1.10;100.00
28354;BME280;15603;50.878;8.036;2022-11-20T04:33:52;143524.00;;;1.09;100.00
28354;BME280;15603;50.878;8.036;2022-11-20T04:36:20;143524.00;;;1.09;100.00
28354;BME280;15603;50.878;8.036;2022-11-20T04:38:52;143519.19;;;1.07;100.00
28354;BME280;15603;50.878;8.036;2022-11-20T04:41:25;143504.72;;;1.01;100.00
28354;BME280;15603;50.878;8.036;2022-11-20T04:43:55;143530.03;;;1.11;100.00
28354;BME280;15603;50.878;8.036;2022-11-20T04:46:27;143526.44;;;1.10;100.00
28354;BME280;15603;50.878;8.036;2022-11-20T04:48:54;143483.00;;;0.91;100.00
28354;BME280;15603;50.878;8.036;2022-11-20T04:51:22;143438.34;;;0.72;100.00
28354;BME280;15603;50.878;8.036;2022-11-20T04:53:49;143518.00;;;1.06;100.00
28354;BME280;15603;50.878;8.036;2022-11-20T04:56:16;143526.44;;;1.10;100.00
28354;BME280;15603;50.878;8.036;2022-11-20T04:58:43;143531.28;;;1.12;100.00
28354;BME280;15603;50.878;8.036;2022-11-20T05:01:19;143521.56;;;1.08;100.00
28354;BME280;15603;50.878;8.036;2022-11-20T05:03:46;143525.22;;;1.09;100.00
28354;BME280;15603;50.878;8.036;2022-11-20T05:06:16;143530.03;;;1.11;100.00
28354;BME280;15603;50.878;8.036;2022-11-20T05:08:43;143507.09;;;1.02;100.00
28354;BME280;15603;50.878;8.036;2022-11-20T05:11:15;143510.72;;;1.03;100.00
28354;BME280;15603;50.878;8.036;2022-11-20T05:13:43;143515.56;;;1.05;100.00
28354;BME280;15603;50.878;8.036;2022-11-20T05:16:13;143515.56;;;1.05;100.00
28354;BME280;15603;50.878;8.036;2022-11-20T05:18:41;143521.56;;;1.08;100.00
28354;BME280;15603;50.878;8.036;2022-11-20T05:21:09;143515.56;;;1.05;100.00
28354;BME280;15603;50.878;8.036;2022-11-20T05:23:37;143528.84;;;1.11;100.00
28354;BME280;15603;50.878;8.036;2022-11-20T05:26:06;143531.28;;;1.12;100.00
28354;BME280;15603;50.878;8.036;2022-11-20T05:28:34;143552.97;;;1.21;100.00
28354;BME280;15603;50.878;8.036;2022-11-20T05:31:09;143551.75;;;1.21;100.00
28354;BME280;15603;50.878;8.036;2022-11-20T05:33:37;143543.31;;;1.17;100.00
28354;BME280;15603;50.878;8.036;2022-11-20T05:36:06;143533.66;;;1.13;100.00
28354;BME280;15603;50.878;8.036;2022-11-20T05:38:33;143526.44;;;1.10;100.00
28354;BME280;15603;50.878;8.036;2022-11-20T05:41:14;143538.50;;;1.15;100.00
28354;BME280;15603;50.878;8.036;2022-11-20T05:43:43;143544.56;;;1.17;100.00
28354;BME280;15603;50.878;8.036;2022-11-20T05:46:12;143531.28;;;1.12;100.00
28354;BME280;15603;50.878;8.036;2022-11-20T05:48:41;143528.84;;;1.11;100.00
28354;BME280;15603;50.878;8.036;2022-11-20T05:51:10;143526.44;;;1.10;100.00
28354;BME280;15603;50.878;8.036;2022-11-20T05:53:38;143458.88;;;0.81;100.00
28354;BME280;15603;50.878;8.036;2022-11-20T05:56:15;143560.22;;;1.24;100.00
28354;BME280;15603;50.878;8.036;2022-11-20T05:58:43;143555.41;;;1.22;100.00
28354;BME280;15603;50.878;8.036;2022-11-20T06:01:19;143562.66;;;1.25;100.00
28354;BME280;15603;50.878;8.036;2022-11-20T06:03:47;143542.13;;;1.16;100.00
28354;BME280;15603;50.878;8.036;2022-11-20T06:06:15;143545.75;;;1.18;100.00
28354;BME280;15603;50.878;8.036;2022-11-20T06:08:43;143562.66;;;1.25;100.00
28354;BME280;15603;50.878;8.036;2022-11-20T06:11:12;143545.75;;;1.18;100.00
28354;BME280;15603;50.878;8.036;2022-11-20T06:13:39;143555.41;;;1.22;100.00
28354;BME280;15603;50.878;8.036;2022-11-20T06:16:09;143549.38;;;1.20;100.00
28354;BME280;15603;50.878;8.036;2022-11-20T06:18:37;143536.09;;;1.14;100.00
28354;BME280;15603;50.878;8.036;2022-11-20T06:23:34;143545.75;;;1.18;100.00
28354;BME280;15603;50.878;8.036;2022-11-20T06:26:06;143567.47;;;1.27;100.00
28354;BME280;15603;50.878;8.036;2022-11-20T06:28:34;143565.06;;;1.26;100.00
28354;BME280;15603;50.878;8.036;2022-11-20T06:31:02;143569.88;;;1.28;100.00
28354;BME280;15603;50.878;8.036;2022-11-20T06:33:29;143531.28;;;1.12;100.00
28354;BME280;15603;50.878;8.036;2022-11-20T06:35:58;143502.28;;;1.00;100.00
28354;BME280;15603;50.878;8.036;2022-11-20T06:38:30;143507.09;;;1.02;100.00
28354;BME280;15603;50.878;8.036;2022-11-20T06:40:57;143490.25;;;0.94;100.00
28354;BME280;15603;50.878;8.036;2022-11-20T06:43:24;143485.38;;;0.92;100.00
28354;BME280;15603;50.878;8.036;2022-11-20T06:45:56;143510.72;;;1.03;100.00
28354;BME280;15603;50.878;8.036;2022-11-20T06:48:25;143495.06;;;0.96;100.00
28354;BME280;15603;50.878;8.036;2022-11-20T06:50:53;143505.91;;;1.01;100.00
28354;BME280;15603;50.878;8.036;2022-11-20T06:53:21;143526.44;;;1.10;100.00
28354;BME280;15603;50.878;8.036;2022-11-20T06:55:50;143527.66;;;1.10;100.00
28354;BME280;15603;50.878;8.036;2022-11-20T06:58:17;143420.25;;;0.65;100.00
28354;BME280;15603;50.878;8.036;2022-11-20T07:00:44;143521.56;;;1.08;100.00
28354;BME280;15603;50.878;8.036;2022-11-20T07:03:12;143543.31;;;1.17;100.00
28354;BME280;15603;50.878;8.036;2022-11-20T07:05:40;143518.00;;;1.06;100.00
28354;BME280;15603;50.878;8.036;2022-11-20T07:08:07;143543.31;;;1.17;100.00
28354;BME280;15603;50.878;8.036;2022-11-20T07:10:35;143567.47;;;1.27;100.00
28354;BME280;15603;50.878;8.036;2022-11-20T07:13:02;143556.59;;;1.23;100.00
28354;BME280;15603;50.878;8.036;2022-11-20T07:15:29;143429.88;;;0.69;100.00
28354;BME280;15603;50.878;8.036;2022-11-20T07:17:59;143543.31;;;1.17;100.00
28354;BME280;15603;50.878;8.036;2022-11-20T07:20:27;143545.75;;;1.18;100.00
28354;BME280;15603;50.878;8.036;2022-11-20T07:22:55;143556.59;;;1.23;100.00
28354;BME280;15603;50.878;8.036;2022-11-20T07:25:26;143555.41;;;1.22;100.00
28354;BME280;15603;50.878;8.036;2022-11-20T07:27:57;143548.13;;;1.19;100.00
28354;BME280;15603;50.878;8.036;2022-11-20T07:30:26;143534.84;;;1.13;100.00
28354;BME280;15603;50.878;8.036;2022-11-20T07:32:55;143507.09;;;1.02;100.00
28354;BME280;15603;50.878;8.036;2022-11-20T07:35:23;143549.38;;;1.20;100.00
28354;BME280;15603;50.878;8.036;2022-11-20T07:37:50;143581.97;;;1.33;100.00
28354;BME280;15603;50.878;8.036;2022-11-20T07:40:18;143563.84;;;1.26;100.00
28354;BME280;15603;50.878;8.036;2022-11-20T07:42:53;143527.66;;;1.10;100.00
28354;BME280;15603;50.878;8.036;2022-11-20T07:45:22;143591.63;;;1.37;100.00
28354;BME280;15603;50.878;8.036;2022-11-20T07:47:50;143578.31;;;1.32;100.00
28354;BME280;15603;50.878;8.036;2022-11-20T07:50:18;143555.41;;;1.22;100.00
28354;BME280;15603;50.878;8.036;2022-11-20T07:52:45;143566.25;;;1.27;100.00
28354;BME280;15603;50.878;8.036;2022-11-20T07:55:13;143575.91;;;1.31;100.00
28354;BME280;15603;50.878;8.036;2022-11-20T07:57:40;143575.91;;;1.31;100.00
28354;BME280;15603;50.878;8.036;2022-11-20T08:00:09;143562.66;;;1.25;100.00
28354;BME280;15603;50.878;8.036;2022-11-20T08:02:40;143627.81;;;1.53;100.00
28354;BME280;15603;50.878;8.036;2022-11-20T08:05:09;143650.75;;;1.63;100.00
28354;BME280;15603;50.878;8.036;2022-11-20T08:07:37;143641.09;;;1.59;100.00
28354;BME280;15603;50.878;8.036;2022-11-20T08:10:06;143651.97;;;1.63;100.00
28354;BME280;15603;50.878;8.036;2022-11-20T08:12:33;143666.44;;;1.69;100.00
28354;BME280;15603;50.878;8.036;2022-11-20T08:15:19;143683.34;;;1.76;100.00
28354;BME280;15603;50.878;8.036;2022-11-20T08:17:46;143654.41;;;1.64;100.00
28354;BME280;15603;50.878;8.036;2022-11-20T08:20:34;143697.84;;;1.83;100.00
28354;BME280;15603;50.878;8.036;2022-11-20T08:23:03;143712.38;;;1.89;100.00
28354;BME280;15603;50.878;8.036;2022-11-20T08:25:31;143738.91;;;2.00;100.00
28354;BME280;15603;50.878;8.036;2022-11-20T08:27:59;143712.38;;;1.89;100.00
28354;BME280;15603;50.878;8.036;2022-11-20T08:30:33;143748.59;;;2.04;100.00
28354;BME280;15603;50.878;8.036;2022-11-20T08:33:06;143729.25;;;1.96;100.00
28354;BME280;15603;50.878;8.036;2022-11-20T08:35:35;143765.47;;;2.11;100.00
28354;BME280;15603;50.878;8.036;2022-11-20T08:38:04;143741.34;;;2.01;100.00
28354;BME280;15603;50.878;8.036;2022-11-20T08:40:32;143763.09;;;2.10;100.00
28354;BME280;15603;50.878;8.036;2022-11-20T08:42:59;143760.63;;;2.09;100.00
28354;BME280;15603;50.878;8.036;2022-11-20T08:45:26;143777.56;;;2.16;100.00
28354;BME280;15603;50.878;8.036;2022-11-20T08:48:01;143743.78;;;2.02;100.00
28354;BME280;15603;50.878;8.036;2022-11-20T08:50:29;143813.81;;;2.32;100.00
28354;BME280;15603;50.878;8.036;2022-11-20T08:53:04;143813.81;;;2.32;100.00
28354;BME280;15603;50.878;8.036;2022-11-20T08:55:31;143830.72;;;2.39;100.00
28354;BME280;15603;50.878;8.036;2022-11-20T08:58:03;143766.72;;;2.12;100.00
28354;BME280;15603;50.878;8.036;2022-11-20T09:00:30;143840.38;;;2.43;100.00
28354;BME280;15603;50.878;8.036;2022-11-20T09:02:57;143842.78;;;2.44;100.00
28354;BME280;15603;50.878;8.036;2022-11-20T09:05:25;143871.81;;;2.57;100.00
28354;BME280;15603;50.878;8.036;2022-11-20T09:07:56;143915.28;;;2.75;100.00
28354;BME280;15603;50.878;8.036;2022-11-20T09:10:23;143904.41;;;2.70;100.00
28354;BME280;15603;50.878;8.036;2022-11-20T09:12:52;143887.50;;;2.63;100.00
28354;BME280;15603;50.878;8.036;2022-11-20T09:15:19;143908.06;;;2.72;100.00
28354;BME280;15603;50.878;8.036;2022-11-20T09:20:19;143879.03;;;2.60;100.00
28354;BME280;15603;50.878;8.036;2022-11-20T09:22:47;143932.22;;;2.82;100.00
28354;BME280;15603;50.878;8.036;2022-11-20T09:25:14;143940.69;;;2.86;100.00
28354;BME280;15603;50.878;8.036;2022-11-20T09:27:41;143995.06;;;3.09;98.92
28354;BME280;15603;50.878;8.036;2022-11-20T09:30:11;143973.31;;;3.00;98.84
28354;BME280;15603;50.878;8.036;2022-11-20T09:32:39;143935.84;;;2.84;100.00
28354;BME280;15603;50.878;8.036;2022-11-20T09:35:06;143903.22;;;2.70;100.00
28354;BME280;15603;50.878;8.036;2022-11-20T09:37:34;144002.34;;;3.12;100.00
28354;BME280;15603;50.878;8.036;2022-11-20T09:40:01;143938.25;;;2.85;100.00
28354;BME280;15603;50.878;8.036;2022-11-20T09:48:32;144021.66;;;3.20;100.00
28354;BME280;15603;50.878;8.036;2022-11-20T09:56:53;144055.50;;;3.34;100.00
28354;BME280;15603;50.878;8.036;2022-11-20T09:59:29;144089.38;;;3.49;97.32
28354;BME280;15603;50.878;8.036;2022-11-20T10:02:00;143970.91;;;2.99;95.72
28354;BME280;15603;50.878;8.036;2022-11-20T10:04:30;144055.50;;;3.34;97.91
28354;BME280;15603;50.878;8.036;2022-11-20T10:07:12;144070.03;;;3.41;97.27
28354;BME280;15603;50.878;8.036;2022-11-20T10:09:59;144085.75;;;3.47;98.14
28354;BME280;15603;50.878;8.036;2022-11-20T10:12:40;144118.38;;;3.61;98.10
28354;BME280;15603;50.878;8.036;2022-11-20T10:15:28;144147.44;;;3.73;97.28
28354;BME280;15603;50.878;8.036;2022-11-20T10:18:28;144145.00;;;3.72;96.57
28354;BME280;15603;50.878;8.036;2022-11-20T10:29:12;144151.03;;;3.75;94.83
28354;BME280;15603;50.878;8.036;2022-11-20T10:31:43;144216.38;;;4.03;92.18
28354;BME280;15603;50.878;8.036;2022-11-20T10:34:38;144220.00;;;4.04;94.71
28354;BME280;15603;50.878;8.036;2022-11-20T10:37:14;144294.97;;;4.36;93.39
28354;BME280;15603;50.878;8.036;2022-11-20T10:40:05;144303.47;;;4.40;92.67
28354;BME280;15603;50.878;8.036;2022-11-20T10:48:15;144309.50;;;4.42;92.21
28354;BME280;15603;50.878;8.036;2022-11-20T10:50:57;144275.63;;;4.28;92.05
28354;BME280;15603;50.878;8.036;2022-11-20T10:53:47;144281.66;;;4.30;93.74
28354;BME280;15603;50.878;8.036;2022-11-20T10:56:27;144292.59;;;4.35;91.73
28354;BME280;15603;50.878;8.036;2022-11-20T11:01:54;144344.59;;;4.57;91.38
28354;BME280;15603;50.878;8.036;2022-11-20T11:04:37;144338.56;;;4.55;92.19
28354;BME280;15603;50.878;8.036;2022-11-20T11:07:15;144324.06;;;4.48;91.93
28354;BME280;15603;50.878;8.036;2022-11-20T11:09:47;144298.63;;;4.38;92.64
28354;BME280;15603;50.878;8.036;2022-11-20T11:12:14;144311.94;;;4.43;90.42
28354;BME280;15603;50.878;8.036;2022-11-20T11:14:46;144278.03;;;4.29;88.84
28354;BME280;15603;50.878;8.036;2022-11-20T11:17:31;144265.97;;;4.24;92.71
28354;BME280;15603;50.878;8.036;2022-11-20T11:20:03;144220.00;;;4.04;93.04
28354;BME280;15603;50.878;8.036;2022-11-20T11:22:32;144251.47;;;4.18;94.61
28354;BME280;15603;50.878;8.036;2022-11-20T11:25:00;144257.50;;;4.20;94.97
28354;BME280;15603;50.878;8.036;2022-11-20T11:27:27;144286.50;;;4.32;93.15
28354;BME280;15603;50.878;8.036;2022-11-20T11:30:14;144261.13;;;4.22;94.44
28354;BME280;15603;50.878;8.036;2022-11-20T11:32:42;144292.59;;;4.35;92.94
28354;BME280;15603;50.878;8.036;2022-11-20T11:35:29;144316.78;;;4.45;94.47
28354;BME280;15603;50.878;8.036;2022-11-20T11:38:14;144314.34;;;4.44;94.88
28354;BME280;15603;50.878;8.036;2022-11-20T11:40:43;144287.75;;;4.33;94.75
28354;BME280;15603;50.878;8.036;2022-11-20T11:43:20;144321.59;;;4.47;93.38
28354;BME280;15603;50.878;8.036;2022-11-20T11:49:00;144409.94;;;4.85;93.33
28354;BME280;15603;50.878;8.036;2022-11-20T11:54:49;144331.28;;;4.51;93.37
28354;BME280;15603;50.878;8.036;2022-11-20T12:00:39;144238.16;;;4.12;93.42
28354;BME280;15603;50.878;8.036;2022-11-20T12:03:14;144298.63;;;4.38;94.32
28354;BME280;15603;50.878;8.036;2022-11-20T12:05:47;144330.09;;;4.51;92.92
28354;BME280;15603;50.878;8.036;2022-11-20T12:08:27;144344.59;;;4.57;93.01
28354;BME280;15603;50.878;8.036;2022-11-20T12:16:01;144299.81;;;4.38;95.83
28354;BME280;15603;50.878;8.036;2022-11-20T12:18:30;144280.47;;;4.30;95.68
28354;BME280;15603;50.878;8.036;2022-11-20T12:21:34;144273.19;;;4.27;95.57
28354;BME280;15603;50.878;8.036;2022-11-20T12:24:32;144253.84;;;4.19;97.19
28354;BME280;15603;50.878;8.036;2022-11-20T12:42:57;144236.91;;;4.11;100.00
28354;BME280;15603;50.878;8.036;2022-11-20T12:48:27;144244.19;;;4.15;100.00
28354;BME280;15603;50.878;8.036;2022-11-20T12:51:42;144256.28;;;4.20;100.00
28354;BME280;15603;50.878;8.036;2022-11-20T12:57:14;144244.19;;;4.15;100.00
28354;BME280;15603;50.878;8.036;2022-11-20T13:00:14;144270.81;;;4.26;100.00
28354;BME280;15603;50.878;8.036;2022-11-20T13:08:04;144241.72;;;4.13;100.00
28354;BME280;15603;50.878;8.036;2022-11-20T13:10:58;144239.34;;;4.12;100.00
28354;BME280;15603;50.878;8.036;2022-11-20T13:13:35;144257.50;;;4.20;100.00
28354;BME280;15603;50.878;8.036;2022-11-20T13:18:41;144174.00;;;3.85;100.00
28354;BME280;15603;50.878;8.036;2022-11-20T13:21:17;144178.88;;;3.87;100.00
28354;BME280;15603;50.878;8.036;2022-11-20T13:23:45;144265.97;;;4.24;100.00
28354;BME280;15603;50.878;8.036;2022-11-20T13:26:20;144259.88;;;4.21;100.00
28354;BME280;15603;50.878;8.036;2022-11-20T13:29:10;144259.88;;;4.21;100.00
28354;BME280;15603;50.878;8.036;2022-11-20T13:31:46;144244.19;;;4.15;100.00
28354;BME280;15603;50.878;8.036;2022-11-20T13:34:23;144222.41;;;4.05;100.00
28354;BME280;15603;50.878;8.036;2022-11-20T13:36:54;144262.31;;;4.22;100.00
28354;BME280;15603;50.878;8.036;2022-11-20T13:39:34;144258.69;;;4.21;100.00
28354;BME280;15603;50.878;8.036;2022-11-20T13:44:42;144232.06;;;4.09;100.00
28354;BME280;15603;50.878;8.036;2022-11-20T13:47:27;144230.88;;;4.09;100.00
28354;BME280;15603;50.878;8.036;2022-11-20T13:49:57;144211.53;;;4.01;100.00
28354;BME280;15603;50.878;8.036;2022-11-20T13:53:26;144188.53;;;3.91;100.00
28354;BME280;15603;50.878;8.036;2022-11-20T14:00:57;144222.41;;;4.05;100.00
28354;BME280;15603;50.878;8.036;2022-11-20T14:03:28;144195.78;;;3.94;100.00
28354;BME280;15603;50.878;8.036;2022-11-20T14:06:43;144216.38;;;4.03;100.00
28354;BME280;15603;50.878;8.036;2022-11-20T14:09:23;144200.63;;;3.96;100.00
28354;BME280;15603;50.878;8.036;2022-11-20T14:11:51;144200.63;;;3.96;100.00
28354;BME280;15603;50.878;8.036;2022-11-20T14:14:20;144221.19;;;4.05;100.00
28354;BME280;15603;50.878;8.036;2022-11-20T14:16:49;144085.75;;;3.47;100.00
28354;BME280;15603;50.878;8.036;2022-11-20T14:21:52;144218.75;;;4.04;100.00
28354;BME280;15603;50.878;8.036;2022-11-20T14:24:22;144240.53;;;4.13;100.00
28354;BME280;15603;50.878;8.036;2022-11-20T14:26:50;144236.91;;;4.11;100.00
28354;BME280;15603;50.878;8.036;2022-11-20T14:29:28;144186.09;;;3.90;100.00
28354;BME280;15603;50.878;8.036;2022-11-20T14:31:57;144217.56;;;4.03;100.00
28354;BME280;15603;50.878;8.036;2022-11-20T14:34:26;144180.06;;;3.87;100.00
28354;BME280;15603;50.878;8.036;2022-11-20T14:37:04;144178.88;;;3.87;100.00
28354;BME280;15603;50.878;8.036;2022-11-20T14:39:34;144180.06;;;3.87;100.00
28354;BME280;15603;50.878;8.036;2022-11-20T14:42:10;144188.53;;;3.91;100.00
28354;BME280;15603;50.878;8.036;2022-11-20T14:44:41;144197.03;;;3.95;100.00
28354;BME280;15603;50.878;8.036;2022-11-20T14:47:12;144193.38;;;3.93;100.00